Aviation Digital Data Service (ADDS)

Output produced by METARs form (1016 UTC 21 October 2014)
found at http://aviationweather.gov/adds/metars/
 
KVQQ 210919Z 2109/2206 00000KT 4SM BR SCT250 
     TEMPO 2109/2112 2SM BR 
     FM211300 31004KT P6SM SCT250 
     FM220000 VRB03KT P6SM SKC